Time;durP1;ratioP1;P1;durP2;ratioP2;P2;SDS_P1;SDS_P2;PMS_P1;PMS_P2;Temp;Humidity;BMP_temperature;BMP_pressure;BME280_temperature;BME280_humidity;BME280_pressure;Samples;Min_cycle;Max_cycle;Signal;HPM_P1;HPM_P2
2021/08/08 00:00:34;;;;;;;1.38;0.90;;;;;;;10.87;100.00;94184.47;5035389;28;20029;-57
2021/08/08 00:03:19;;;;;;;2.85;1.02;;;;;;;10.88;100.00;94194.09;5053134;28;20048;-60
2021/08/08 00:05:44;;;;;;;1.85;0.90;;;;;;;10.88;100.00;94190.63;5053187;28;20547;-59
2021/08/08 00:08:12;;;;;;;1.92;1.48;;;;;;;10.89;100.00;94195.69;5035131;28;20112;-60
2021/08/08 00:10:45;;;;;;;1.95;0.90;;;;;;;10.99;100.00;94194.75;5052960;28;20067;-59
2021/08/08 00:13:16;;;;;;;;;;;;;;;10.99;100.00;94194.75;5035652;28;20026;-58
2021/08/08 00:15:42;;;;;;;0.90;0.90;;;;;;;10.98;100.00;94193.97;5052988;28;20379;-59
2021/08/08 00:18:10;;;;;;;2.03;1.10;;;;;;;11.02;100.00;94186.13;5055910;28;20053;-60
2021/08/08 00:20:36;;;;;;;1.55;0.95;;;;;;;11.10;100.00;94193.53;5072800;28;20025;-58
2021/08/08 00:23:05;;;;;;;2.50;0.98;;;;;;;11.18;100.00;94192.88;5085951;28;20023;-58
2021/08/08 00:25:33;;;;;;;2.72;0.98;;;;;;;11.20;100.00;94188.03;5093094;28;20055;-60
2021/08/08 00:27:59;;;;;;;4.53;1.17;;;;;;;11.22;100.00;94188.53;5089358;28;20024;-59
2021/08/08 00:30:27;;;;;;;3.15;1.15;;;;;;;11.22;100.00;94190.41;5054840;28;20459;-58
2021/08/08 00:32:54;;;;;;;1.70;1.00;;;;;;;11.18;100.00;94192.06;5054680;28;20118;-56
2021/08/08 00:35:19;;;;;;;1.90;1.15;;;;;;;11.15;100.00;94192.66;5054681;28;20027;-51
2021/08/08 00:37:46;;;;;;;2.80;1.30;;;;;;;11.16;100.00;94195.03;5071696;28;20475;-51
2021/08/08 00:40:17;;;;;;;1.40;0.98;;;;;;;11.12;100.00;94195.91;5067731;28;20059;-52
2021/08/08 00:42:46;;;;;;;3.22;1.80;;;;;;;11.11;100.00;94188.97;5092768;28;20379;-51
2021/08/08 00:45:20;;;;;;;0.98;0.90;;;;;;;11.12;100.00;94195.91;5092674;28;20063;-50
2021/08/08 00:47:51;;;;;;;2.40;1.00;;;;;;;11.09;100.00;94189.25;5071294;28;20035;-54
2021/08/08 00:50:18;;;;;;;1.23;1.13;;;;;;;11.10;100.00;94190.84;5072518;28;20463;-55
2021/08/08 00:52:46;;;;;;;1.13;0.73;;;;;;;11.09;100.00;94197.31;5054364;28;20399;-50
2021/08/08 00:55:16;;;;;;;2.10;0.80;;;;;;;11.06;100.00;94215.81;5072431;28;20028;-53
2021/08/08 00:57:44;;;;;;;1.00;0.77;;;;;;;10.95;100.00;94224.00;5072184;28;20395;-50
2021/08/08 01:00:16;;;;;;;3.88;0.95;;;;;;;10.85;100.00;94231.34;5072165;28;20063;-58
2021/08/08 01:02:49;;;;;;;1.98;0.80;;;;;;;10.78;100.00;94226.38;5072279;28;20024;-59
2021/08/08 01:05:18;;;;;;;;;;;;;;;10.71;100.00;94237.41;5072709;28;20525;-56
2021/08/08 01:07:53;;;;;;;1.85;0.90;;;;;;;10.72;100.00;94232.84;5072014;28;19915;-57
2021/08/08 01:10:19;;;;;;;1.15;0.80;;;;;;;10.73;100.00;94229.88;5072270;28;20024;-59
2021/08/08 01:13:04;;;;;;;1.63;1.10;;;;;;;10.80;100.00;94226.88;5072075;28;20032;-60
2021/08/08 01:15:42;;;;;;;1.35;0.88;;;;;;;10.81;100.00;94220.44;5072176;28;20036;-58
2021/08/08 01:18:12;;;;;;;1.30;0.82;;;;;;;10.86;100.00;94224.94;5071968;28;20048;-59
2021/08/08 01:20:42;;;;;;;0.98;0.82;;;;;;;10.85;100.00;94221.44;5072074;28;20027;-58
2021/08/08 01:23:10;;;;;;;1.88;0.80;;;;;;;10.85;100.00;94239.41;5067576;28;20390;-60
2021/08/08 01:25:36;;;;;;;2.10;0.90;;;;;;;10.89;100.00;94233.19;5092292;28;20032;-57
2021/08/08 01:28:10;;;;;;;1.15;0.80;;;;;;;10.92;100.00;94224.56;5088356;28;20535;-58
2021/08/08 01:30:38;;;;;;;2.97;0.70;;;;;;;10.97;100.00;94226.41;5072010;28;20654;-57
2021/08/08 01:33:06;;;;;;;2.20;0.70;;;;;;;10.98;100.00;94215.41;5071936;28;20032;-55
2021/08/08 01:35:31;;;;;;;1.65;1.00;;;;;;;10.98;100.00;94223.44;5072025;28;20024;-54
2021/08/08 01:38:08;;;;;;;1.80;0.80;;;;;;;11.02;100.00;94227.13;5071694;28;20032;-56
2021/08/08 01:40:57;;;;;;;3.17;0.80;;;;;;;11.06;100.00;94219.28;5072069;28;20107;-55
2021/08/08 01:43:32;;;;;;;1.35;0.70;;;;;;;11.07;100.00;94217.41;5057889;28;20021;-56
2021/08/08 01:46:08;;;;;;;1.63;0.80;;;;;;;11.08;100.00;94217.16;5075824;28;20025;-58
2021/08/08 01:48:41;;;;;;;1.00;0.80;;;;;;;11.12;100.00;94220.03;5076043;28;20056;-57
2021/08/08 01:51:09;;;;;;;1.63;0.70;;;;;;;11.15;100.00;94222.94;5075711;28;20031;-57
2021/08/08 01:53:47;;;;;;;2.03;0.95;;;;;;;11.26;100.00;94220.91;5075720;28;20099;-55
2021/08/08 01:56:21;;;;;;;4.05;1.00;;;;;;;11.28;100.00;94208.78;5075663;28;20032;-55
2021/08/08 01:58:47;;;;;;;4.90;1.13;;;;;;;11.28;100.00;94216.03;5075315;28;20029;-52
2021/08/08 02:01:15;;;;;;;1.33;0.70;;;;;;;11.26;100.00;94210.97;5075497;28;20036;-55
2021/08/08 02:03:41;;;;;;;1.88;0.70;;;;;;;11.27;100.00;94209.88;5057602;28;20020;-57
2021/08/08 02:06:08;;;;;;;1.65;0.73;;;;;;;11.28;100.00;94202.63;5075499;28;20074;-56
2021/08/08 02:08:34;;;;;;;3.25;0.85;;;;;;;11.29;100.00;94202.38;5075187;28;20505;-55
2021/08/08 02:11:00;;;;;;;1.15;0.73;;;;;;;11.31;100.00;94204.75;5075165;28;20025;-58
2021/08/08 02:13:33;;;;;;;2.78;0.80;;;;;;;11.33;100.00;94206.06;5075269;28;20513;-59
2021/08/08 02:15:59;;;;;;;0.60;0.60;;;;;;;11.35;100.00;94204.97;5075079;28;20043;-56
2021/08/08 02:18:27;;;;;;;0.60;0.52;;;;;;;11.36;100.00;94203.88;5042260;28;20502;-55
2021/08/08 02:20:52;;;;;;;1.35;0.93;;;;;;;11.41;100.00;94196.56;5037328;28;20079;-52
2021/08/08 02:23:21;;;;;;;0.98;0.85;;;;;;;11.47;100.00;94195.38;5070338;28;20036;-51
2021/08/08 02:25:51;;;;;;;0.93;0.85;;;;;;;11.52;100.00;94189.16;5074967;28;20032;-51
2021/08/08 02:28:19;;;;;;;1.88;0.90;;;;;;;11.52;100.00;94187.28;5051816;28;20021;-53
2021/08/08 02:30:45;;;;;;;5.05;0.95;;;;;;;11.52;100.00;94195.31;5037208;28;20025;-52
2021/08/08 02:33:10;;;;;;;1.60;0.90;;;;;;;11.52;100.00;94197.22;5036964;28;20079;-51
2021/08/08 02:35:38;;;;;;;1.80;1.10;;;;;;;11.49;100.00;94193.22;5054854;28;20025;-51
2021/08/08 02:38:08;;;;;;;1.02;0.80;;;;;;;11.51;100.00;94193.75;5054650;28;20120;-57
2021/08/08 02:40:42;;;;;;;1.15;0.80;;;;;;;11.53;100.00;94198.81;5055131;28;20029;-58
2021/08/08 02:43:10;;;;;;;0.82;0.73;;;;;;;11.55;100.00;94196.63;5054751;28;20033;-56
2021/08/08 02:45:35;;;;;;;1.65;0.80;;;;;;;11.56;100.00;94196.31;5036878;28;20107;-59
2021/08/08 02:48:01;;;;;;;1.73;0.88;;;;;;;11.58;100.00;94196.03;5036940;28;20494;-58
2021/08/08 02:50:27;;;;;;;0.93;0.80;;;;;;;11.59;100.00;94193.06;5036789;28;20025;-58
2021/08/08 02:53:01;;;;;;;1.23;0.90;;;;;;;11.61;100.00;94187.38;5053229;28;20021;-58
2021/08/08 02:55:36;;;;;;;2.13;1.00;;;;;;;11.64;100.00;94181.47;5054534;28;20051;-58
2021/08/08 02:58:04;;;;;;;2.20;0.90;;;;;;;11.69;100.00;94173.31;5037777;28;20431;-59
2021/08/08 03:00:29;;;;;;;1.15;0.90;;;;;;;11.74;100.00;94175.94;5036396;28;20044;-60
2021/08/08 03:02:55;;;;;;;0.98;0.77;;;;;;;11.76;100.00;94176.44;5054491;28;20106;-56
2021/08/08 03:05:20;;;;;;;3.90;0.90;;;;;;;11.77;100.00;94169.19;5054209;28;20528;-58
2021/08/08 03:07:47;;;;;;;1.88;0.90;;;;;;;11.76;100.00;94179.13;5054251;28;20021;-58
2021/08/08 03:10:32;;;;;;;1.23;0.90;;;;;;;11.75;100.00;94176.72;5036433;28;20029;-58
2021/08/08 03:12:57;;;;;;;1.25;0.73;;;;;;;11.74;100.00;94183.19;5054314;28;20033;-56
2021/08/08 03:15:25;;;;;;;5.28;1.05;;;;;;;11.75;100.00;94180.22;5056625;28;20023;-58
2021/08/08 03:17:53;;;;;;;0.90;0.75;;;;;;;11.79;100.00;94173.19;5039599;28;20020;-60
2021/08/08 03:20:20;;;;;;;1.92;0.90;;;;;;;11.84;100.00;94178.47;5066533;28;20033;-56
2021/08/08 03:22:55;;;;;;;1.70;0.82;;;;;;;11.89;100.00;94177.59;5044960;28;20478;-59
2021/08/08 03:25:24;;;;;;;2.80;0.70;;;;;;;11.93;100.00;94180.47;5054075;28;20028;-59
2021/08/08 03:27:58;;;;;;;0.70;0.60;;;;;;;11.93;100.00;94183.94;5033887;28;20025;-57
2021/08/08 03:30:35;;;;;;;1.00;1.00;;;;;;;11.93;100.00;94181.25;5073471;28;20020;-60
2021/08/08 03:33:01;;;;;;;1.95;0.77;;;;;;;11.93;100.00;94189.31;5073883;28;20375;-58
2021/08/08 03:35:26;;;;;;;1.13;0.75;;;;;;;11.93;100.00;94189.31;5055887;28;20025;-56
2021/08/08 03:37:52;;;;;;;1.23;0.70;;;;;;;11.93;100.00;94191.19;5073582;28;20029;-60
2021/08/08 03:40:17;;;;;;;1.60;0.90;;;;;;;11.95;100.00;94200.56;5073712;28;20021;-59
2021/08/08 03:42:42;;;;;;;1.08;0.85;;;;;;;11.96;100.00;94196.00;5063891;28;20048;-59
2021/08/08 03:45:08;;;;;;;3.00;0.73;;;;;;;11.99;100.00;94198.09;5052692;28;20029;-53
2021/08/08 03:47:39;;;;;;;4.13;0.98;;;;;;;11.99;100.00;94206.94;5059537;28;20512;-59
2021/08/08 03:50:10;;;;;;;0.80;0.80;;;;;;;11.99;100.00;94209.59;5050962;28;20028;-59
2021/08/08 03:52:37;;;;;;;3.33;1.10;;;;;;;12.00;100.00;94203.16;5050879;28;20029;-60
2021/08/08 03:55:06;;;;;;;3.53;0.90;;;;;;;12.01;100.00;94198.56;5053361;28;20067;-59
2021/08/08 03:57:31;;;;;;;3.10;0.90;;;;;;;12.04;100.00;94203.34;5053169;28;20033;-59
2021/08/08 04:00:09;;;;;;;2.35;0.73;;;;;;;12.05;100.00;94202.28;5053051;28;20031;-60
2021/08/08 04:02:37;;;;;;;3.33;0.82;;;;;;;12.05;100.00;94200.38;5035355;28;20028;-58
2021/08/08 04:05:03;;;;;;;2.55;0.90;;;;;;;12.05;100.00;94204.97;5052891;28;20468;-59
2021/08/08 04:07:32;;;;;;;6.30;1.23;;;;;;;12.05;100.00;94211.13;5052913;28;20029;-60
2021/08/08 04:09:57;;;;;;;0.80;0.80;;;;;;;12.06;100.00;94209.25;5053005;28;20025;-58
2021/08/08 04:12:22;;;;;;;3.47;0.85;;;;;;;12.07;100.00;94210.84;5035090;28;20029;-57
2021/08/08 04:14:48;;;;;;;1.75;0.88;;;;;;;12.08;100.00;94207.84;5052959;28;20036;-59
2021/08/08 04:17:20;;;;;;;1.63;0.80;;;;;;;12.09;100.00;94205.97;5052855;28;20047;-58
2021/08/08 04:19:46;;;;;;;1.35;0.80;;;;;;;12.08;100.00;94207.84;5070417;28;20056;-59
2021/08/08 04:22:11;;;;;;;2.17;0.90;;;;;;;12.08;100.00;94212.41;5055162;28;20040;-59
2021/08/08 04:24:42;;;;;;;1.95;0.90;;;;;;;12.09;100.00;94220.16;5072506;28;20020;-59
2021/08/08 04:27:07;;;;;;;1.15;1.00;;;;;;;12.11;100.00;94220.66;5055217;28;20035;-60
2021/08/08 04:29:32;;;;;;;1.15;0.75;;;;;;;12.13;100.00;94221.16;5054801;28;20028;-58
2021/08/08 04:31:59;;;;;;;1.60;0.98;;;;;;;12.17;100.00;94222.19;5072557;28;20563;-58
2021/08/08 04:34:31;;;;;;;1.23;0.80;;;;;;;12.21;100.00;94226.97;5038263;28;20029;-50
2021/08/08 04:37:00;;;;;;;2.92;1.17;;;;;;;12.25;100.00;94230.63;5078469;28;20488;-53
2021/08/08 04:39:38;;;;;;;1.00;0.90;;;;;;;12.27;100.00;94229.28;5092522;28;20498;-55
2021/08/08 04:42:03;;;;;;;5.88;0.85;;;;;;;12.29;100.00;94221.72;5092843;28;20019;-51
2021/08/08 04:44:29;;;;;;;2.45;1.00;;;;;;;12.33;100.00;94221.91;5074605;28;20387;-52
2021/08/08 04:46:54;;;;;;;2.15;1.30;;;;;;;12.34;100.00;94216.22;5092755;28;20027;-55
2021/08/08 04:49:19;;;;;;;2.95;0.95;;;;;;;12.38;100.00;94219.13;5074394;28;20116;-58
2021/08/08 04:51:45;;;;;;;1.70;0.88;;;;;;;12.38;100.00;94217.25;5086943;28;20016;-59
2021/08/08 04:54:10;;;;;;;1.63;1.38;;;;;;;12.44;100.00;94223.31;5084531;28;20530;-59
2021/08/08 04:56:36;;;;;;;1.92;0.95;;;;;;;12.45;100.00;94214.94;5074442;28;20031;-57
2021/08/08 04:59:01;;;;;;;2.15;0.82;;;;;;;12.51;100.00;94220.25;5070645;28;20026;-56
2021/08/08 05:01:27;;;;;;;4.13;1.20;;;;;;;12.54;100.00;94222.31;5072096;28;20079;-55
2021/08/08 05:03:56;;;;;;;2.08;0.93;;;;;;;12.56;100.00;94215.56;5072344;28;20138;-58
2021/08/08 05:06:39;;;;;;;6.63;1.05;;;;;;;12.61;100.00;94209.31;5072170;28;20020;-59
2021/08/08 05:09:12;;;;;;;2.65;0.98;;;;;;;12.63;100.00;94221.34;5072187;28;20024;-60
2021/08/08 05:11:41;;;;;;;4.20;0.82;;;;;;;12.67;100.00;94222.31;5072470;28;20064;-60
2021/08/08 05:14:09;;;;;;;0.90;0.88;;;;;;;12.71;100.00;94214.47;5054151;28;20032;-59
2021/08/08 05:16:34;;;;;;;1.48;0.80;;;;;;;12.75;100.00;94210.88;5053361;28;20102;-60
2021/08/08 05:18:59;;;;;;;1.00;0.90;;;;;;;12.78;100.00;94206.78;5061288;28;20084;-58
2021/08/08 05:21:32;;;;;;;2.65;0.80;;;;;;;12.81;100.00;94211.59;5052116;28;20040;-59
2021/08/08 05:24:01;;;;;;;1.73;1.10;;;;;;;12.86;100.00;94210.69;5051984;28;20047;-60
2021/08/08 05:26:32;;;;;;;2.55;0.80;;;;;;;12.90;100.00;94212.47;5051908;28;20119;-60
2021/08/08 05:28:57;;;;;;;3.03;0.90;;;;;;;12.92;100.00;94215.66;5070005;28;20071;-60
2021/08/08 05:31:25;;;;;;;2.45;1.10;;;;;;;12.98;100.00;94213.66;5071997;28;20543;-60
2021/08/08 05:33:52;;;;;;;4.25;1.10;;;;;;;13.03;100.00;94208.97;5071952;28;20029;-59
2021/08/08 05:36:20;;;;;;;1.52;0.80;;;;;;;13.10;100.00;94205.88;5053964;28;20031;-58
2021/08/08 05:38:51;;;;;;;2.08;1.10;;;;;;;13.19;100.00;94200.59;5053792;28;20162;-57
2021/08/08 05:41:16;;;;;;;2.35;1.00;;;;;;;13.42;100.00;94191.47;5053850;28;20471;-53
2021/08/08 05:43:41;;;;;;;2.72;1.00;;;;;;;13.70;100.00;94181.41;5071745;28;20082;-54
2021/08/08 05:46:07;;;;;;;5.53;1.02;;;;;;;13.99;100.00;94180.16;5071919;28;20016;-53
2021/08/08 05:48:35;;;;;;;2.15;0.98;;;;;;;14.20;100.00;94160.47;5071791;28;20025;-60
2021/08/08 05:51:00;;;;;;;6.03;1.13;;;;;;;14.36;100.00;94170.84;5071661;28;20025;-59
2021/08/08 05:53:26;;;;;;;1.85;0.80;;;;;;;14.54;100.00;94175.22;5042095;28;20021;-59
2021/08/08 05:55:51;;;;;;;3.60;1.20;;;;;;;14.41;100.00;94179.59;5033913;28;20028;-59
2021/08/08 05:58:16;;;;;;;6.03;0.90;;;;;;;14.52;100.00;94174.75;5033863;28;20020;-60
2021/08/08 06:00:47;;;;;;;1.95;0.93;;;;;;;14.60;100.00;94179.38;5051783;28;20479;-60
2021/08/08 06:03:12;;;;;;;2.72;1.20;;;;;;;14.61;100.00;94169.38;5071700;28;20024;-60
2021/08/08 06:05:38;;;;;;;5.30;1.15;;;;;;;14.60;100.00;94170.50;5071721;28;20059;-61
2021/08/08 06:08:07;;;;;;;1.23;0.90;;;;;;;14.62;100.00;94177.16;5071559;28;20474;-60
2021/08/08 06:10:33;;;;;;;3.47;1.20;;;;;;;14.86;100.00;94176.75;5071609;28;20487;-61
2021/08/08 06:12:58;;;;;;;3.70;1.00;;;;;;;15.01;100.00;94168.22;5071516;28;20063;-60
2021/08/08 06:15:27;;;;;;;1.67;0.75;;;;;;;15.07;100.00;94164.25;5053757;28;20059;-61
2021/08/08 06:17:55;;;;;;;1.08;0.80;;;;;;;15.10;100.00;94172.84;5071184;28;20119;-61
2021/08/08 06:20:24;;;;;;;1.73;0.80;;;;;;;15.08;100.00;94170.44;5071643;28;20074;-60
2021/08/08 06:22:49;;;;;;;2.15;0.80;;;;;;;15.01;100.00;94172.84;5071551;28;20021;-60
2021/08/08 06:25:15;;;;;;;4.70;1.15;;;;;;;14.91;100.00;94186.63;5053481;28;20025;-61
2021/08/08 06:27:43;;;;;;;1.45;0.80;;;;;;;14.83;100.00;94187.38;5072443;28;20429;-61
2021/08/08 06:30:09;;;;;;;1.63;0.90;;;;;;;14.84;100.00;94192.44;5057079;28;20029;-59
2021/08/08 06:32:35;;;;;;;1.80;0.80;;;;;;;14.83;100.00;94192.78;5057051;28;20445;-59
2021/08/08 06:35:04;;;;;;;3.20;1.00;;;;;;;14.85;100.00;94191.34;5074972;28;20115;-57
2021/08/08 06:37:29;;;;;;;2.15;0.90;;;;;;;14.87;100.00;94183.75;5056956;28;20017;-58
2021/08/08 06:39:55;;;;;;;0.70;0.70;;;;;;;14.87;100.00;94191.03;5056801;28;20119;-58
2021/08/08 06:42:20;;;;;;;1.63;0.95;;;;;;;14.90;100.00;94182.34;5056989;28;20028;-59
2021/08/08 06:44:45;;;;;;;3.28;1.08;;;;;;;14.94;100.00;94184.06;5074769;28;20056;-56
2021/08/08 06:47:11;;;;;;;3.33;1.13;;;;;;;14.99;100.00;94175.84;5056771;28;20082;-59
2021/08/08 06:49:38;;;;;;;2.42;1.00;;;;;;;15.01;100.00;94170.13;5074667;28;20032;-58
2021/08/08 06:52:04;;;;;;;2.33;1.08;;;;;;;15.04;100.00;94156.81;5047077;28;20104;-54
2021/08/08 06:54:29;;;;;;;2.50;0.80;;;;;;;15.08;100.00;94151.56;5057527;28;20095;-58
2021/08/08 06:57:00;;;;;;;3.70;0.80;;;;;;;15.09;100.00;94139.69;5074597;28;20017;-56
2021/08/08 06:59:31;;;;;;;6.63;0.88;;;;;;;15.06;100.00;94122.22;5067351;28;20415;-54
2021/08/08 07:01:57;;;;;;;7.60;1.33;;;;;;;15.04;100.00;94105.56;5054322;28;20028;-53
2021/08/08 07:04:28;;;;;;;4.65;1.00;;;;;;;15.06;100.00;94094.47;5067441;28;20104;-56
2021/08/08 07:06:53;;;;;;;1.83;0.85;;;;;;;15.02;100.00;94091.63;5029448;28;20052;-53
2021/08/08 07:09:18;;;;;;;1.52;0.90;;;;;;;15.00;100.00;94077.66;5036378;28;20028;-57
2021/08/08 07:11:46;;;;;;;4.10;1.00;;;;;;;15.01;100.00;94071.16;5036313;28;20025;-57
2021/08/08 07:14:13;;;;;;;2.30;0.80;;;;;;;15.05;100.00;94072.09;5054456;28;20025;-54
2021/08/08 07:16:41;;;;;;;2.92;1.20;;;;;;;15.12;100.00;94063.53;5054156;28;20025;-56
2021/08/08 07:19:09;;;;;;;3.22;0.80;;;;;;;15.12;100.00;94057.34;5035910;28;20044;-56
2021/08/08 07:21:43;;;;;;;1.83;0.70;;;;;;;15.11;100.00;94056.56;5054165;28;20430;-55
2021/08/08 07:24:11;;;;;;;3.50;0.82;;;;;;;15.05;100.00;94047.81;5054060;28;20055;-57
2021/08/08 07:26:37;;;;;;;1.55;1.00;;;;;;;15.13;100.00;94048.16;5054044;28;20029;-58
2021/08/08 07:29:02;;;;;;;3.40;1.10;;;;;;;15.13;100.00;94034.66;5053723;28;20032;-61
2021/08/08 07:31:31;;;;;;;6.45;1.35;;;;;;;15.18;100.00;94039.88;5053802;28;20053;-61
2021/08/08 07:33:56;;;;;;;1.60;1.13;;;;;;;15.15;100.00;94041.31;5036008;28;20052;-61
2021/08/08 07:36:29;;;;;;;3.88;0.95;;;;;;;15.21;100.00;94048.16;5053763;28;20503;-61
2021/08/08 07:39:00;;;;;;;4.78;0.80;;;;;;;15.24;100.00;94049.41;5053136;28;20025;-61
2021/08/08 07:41:28;;;;;;;4.55;1.00;;;;;;;15.21;100.00;94050.06;5035849;28;20530;-59
2021/08/08 07:43:54;;;;;;;2.97;0.70;;;;;;;15.24;100.00;94065.59;5037262;28;20020;-60
2021/08/08 07:46:20;;;;;;;3.08;0.95;;;;;;;15.26;100.00;94072.25;5055672;28;20028;-59
2021/08/08 07:48:47;;;;;;;2.60;0.93;;;;;;;15.28;100.00;94080.03;5073264;28;20054;-54
2021/08/08 07:51:22;;;;;;;2.60;1.20;;;;;;;15.22;100.00;94082.09;5039511;28;20045;-58
2021/08/08 07:53:55;;;;;;;2.20;1.00;;;;;;;15.30;100.00;94104.78;5040595;28;20025;-56
2021/08/08 07:56:20;;;;;;;3.15;1.20;;;;;;;15.33;100.00;94112.25;5036870;28;20412;-56
2021/08/08 07:58:51;;;;;;;2.50;0.85;;;;;;;15.34;100.00;94130.03;5051670;28;20021;-60
2021/08/08 08:01:18;;;;;;;1.90;1.10;;;;;;;15.28;100.00;94134.78;5061026;28;20410;-53
2021/08/08 08:03:44;;;;;;;4.95;0.80;;;;;;;15.14;100.00;94142.22;5039081;28;20082;-57
2021/08/08 08:06:09;;;;;;;4.65;1.02;;;;;;;15.16;100.00;94158.88;5073196;28;20028;-58
2021/08/08 08:08:34;;;;;;;2.45;1.13;;;;;;;15.15;100.00;94168.09;5073210;28;20063;-55
2021/08/08 08:11:00;;;;;;;3.85;0.95;;;;;;;15.16;100.00;94179.66;5072907;28;20025;-57
2021/08/08 08:16:13;;;;;;;4.80;0.90;;;;;;;15.12;100.00;94211.09;5073025;28;20430;-57
2021/08/08 08:18:39;;;;;;;1.80;0.93;;;;;;;15.11;100.00;94228.38;5042485;28;20080;-58
2021/08/08 08:21:07;;;;;;;4.15;1.33;;;;;;;15.06;100.00;94240.88;5054192;28;20024;-57
2021/08/08 08:23:32;;;;;;;3.00;1.42;;;;;;;15.08;100.00;94251.38;5071195;28;20025;-59
2021/08/08 08:26:00;;;;;;;4.53;1.15;;;;;;;15.14;100.00;94260.13;5068055;28;20094;-61
2021/08/08 08:28:29;;;;;;;2.72;1.08;;;;;;;15.22;100.00;94267.44;5070347;28;20029;-54
2021/08/08 08:30:58;;;;;;;3.40;0.80;;;;;;;15.30;100.00;94270.16;5070817;28;20029;-56
2021/08/08 08:33:26;;;;;;;5.20;0.90;;;;;;;15.42;100.00;94274.97;5070272;28;20032;-60
2021/08/08 08:35:52;;;;;;;3.58;1.10;;;;;;;15.46;100.00;94288.59;5054959;28;20028;-60
2021/08/08 08:38:17;;;;;;;4.00;1.20;;;;;;;15.46;100.00;94302.09;5070627;28;20028;-55
2021/08/08 08:40:47;;;;;;;2.85;0.90;;;;;;;15.46;100.00;94310.19;5055300;28;20047;-61
2021/08/08 08:43:17;;;;;;;2.35;0.90;;;;;;;15.47;100.00;94317.97;5071001;28;20028;-60
2021/08/08 08:45:45;;;;;;;4.40;1.15;;;;;;;15.44;100.00;94332.09;5071329;28;20025;-57
2021/08/08 08:48:12;;;;;;;3.05;0.80;;;;;;;15.44;100.00;94339.41;5052858;28;20028;-59
2021/08/08 08:50:38;;;;;;;7.30;1.17;;;;;;;15.49;100.00;94353.53;5067041;28;20032;-58
2021/08/08 08:53:05;;;;;;;3.78;1.00;;;;;;;15.42;100.00;94357.81;5052813;28;20051;-61
2021/08/08 08:55:34;;;;;;;3.97;1.00;;;;;;;15.28;100.00;94361.41;5052469;28;20032;-58
2021/08/08 08:57:59;;;;;;;6.45;1.17;;;;;;;15.25;100.00;94378.22;5070900;28;20031;-61
2021/08/08 09:00:27;;;;;;;5.32;0.90;;;;;;;15.25;100.00;94388.22;5071359;28;20036;-62
2021/08/08 09:02:52;;;;;;;2.97;0.90;;;;;;;15.34;100.00;94386.34;5070395;28;20020;-62
2021/08/08 09:05:21;;;;;;;5.47;1.25;;;;;;;15.39;100.00;94391.59;5071260;28;20039;-61
2021/08/08 09:07:47;;;;;;;3.70;1.10;;;;;;;15.51;100.00;94396.41;5052675;28;20024;-62
2021/08/08 09:10:14;;;;;;;4.90;1.17;;;;;;;15.59;100.00;94401.03;5070144;28;20540;-60
2021/08/08 09:12:40;;;;;;;6.93;1.42;;;;;;;15.67;100.00;94397.63;5052733;28;20040;-61
2021/08/08 09:15:07;;;;;;;2.67;0.82;;;;;;;15.81;100.00;94409.06;5054313;28;20025;-61
2021/08/08 09:17:41;;;;;;;3.63;1.10;;;;;;;16.00;100.00;94408.03;5070910;28;20118;-61
2021/08/08 09:20:11;;;;;;;3.70;0.90;;;;;;;16.19;100.00;94408.53;5072433;28;20053;-59
2021/08/08 09:22:41;;;;;;;9.50;1.40;;;;;;;16.36;100.00;94413.13;5076035;28;20024;-61
2021/08/08 09:25:22;;;;;;;6.32;1.55;;;;;;;16.59;100.00;94419.19;5052394;28;20025;-61
2021/08/08 09:27:49;;;;;;;3.83;1.33;;;;;;;16.74;100.00;94418.75;5063194;28;20055;-60
2021/08/08 09:30:21;;;;;;;2.15;1.05;;;;;;;16.91;100.00;94417.91;5092133;28;20023;-60
2021/08/08 09:32:47;;;;;;;3.75;1.20;;;;;;;17.10;100.00;94424.56;5091936;28;20031;-61
2021/08/08 09:35:19;;;;;;;7.15;1.40;;;;;;;17.34;100.00;94434.84;5092172;28;20035;-61
2021/08/08 09:37:59;;;;;;;3.53;1.00;;;;;;;17.76;100.00;94451.31;5059474;28;20028;-61
2021/08/08 09:40:27;;;;;;;2.45;1.10;;;;;;;18.01;100.00;94476.69;5073869;28;20479;-61
2021/08/08 09:42:55;;;;;;;2.80;1.00;;;;;;;18.13;100.00;94482.22;5057667;28;20031;-61
2021/08/08 09:45:37;;;;;;;2.90;1.15;;;;;;;18.27;100.00;94487.41;5091884;28;20031;-61
2021/08/08 09:48:06;;;;;;;3.10;1.33;;;;;;;18.51;100.00;94509.28;5073844;28;20024;-61
2021/08/08 09:50:33;;;;;;;4.75;1.13;;;;;;;18.73;100.00;94526.41;5065629;28;20725;-61
2021/08/08 09:53:01;;;;;;;5.25;1.17;;;;;;;18.65;100.00;94566.00;5070728;28;20028;-61
2021/08/08 09:55:39;;;;;;;4.10;1.40;;;;;;;18.70;100.00;94570.47;5070441;28;20039;-61
2021/08/08 09:58:10;;;;;;;3.38;1.00;;;;;;;18.66;100.00;94592.00;5070373;28;20021;-61
2021/08/08 10:00:44;;;;;;;3.15;0.95;;;;;;;18.76;100.00;94578.06;5070847;28;20091;-61
2021/08/08 10:03:12;;;;;;;2.25;1.05;;;;;;;18.83;100.00;94581.06;5054965;28;20024;-61
2021/08/08 10:05:45;;;;;;;2.53;1.17;;;;;;;18.75;100.00;94584.63;5074255;28;20365;-62
2021/08/08 10:08:14;;;;;;;2.92;0.95;;;;;;;18.81;100.00;94587.97;5074187;28;20032;-62
2021/08/08 10:10:47;;;;;;;3.33;1.00;;;;;;;18.63;100.00;94581.78;5074794;28;20077;-62
2021/08/08 10:13:57;;;;;;;3.58;1.23;;;;;;;18.55;100.00;94596.19;5057131;28;20083;-62
2021/08/08 10:16:23;;;;;;;1.80;0.98;;;;;;;18.56;100.00;94584.25;5074036;28;20025;-62
2021/08/08 10:19:01;;;;;;;5.45;1.30;;;;;;;18.41;100.00;94585.56;5027728;28;20049;-62
2021/08/08 10:21:32;;;;;;;1.63;0.98;;;;;;;18.58;100.00;94562.22;5036640;28;20067;-62
2021/08/08 10:24:06;;;;;;;4.03;1.00;;;;;;;18.99;100.00;94539.78;5051400;28;20025;-59
2021/08/08 10:26:34;;;;;;;2.50;0.98;;;;;;;19.28;100.00;94583.16;5055171;28;20032;-61
2021/08/08 10:29:08;;;;;;;5.72;1.25;;;;;;;19.65;100.00;94626.84;5054679;28;20021;-60
2021/08/08 10:31:39;;;;;;;4.05;1.00;;;;;;;20.41;100.00;94622.88;5037292;28;20108;-62
2021/08/08 10:34:07;;;;;;;4.40;1.20;;;;;;;21.00;100.00;94612.34;5037033;28;20052;-61
2021/08/08 10:36:34;;;;;;;2.90;1.00;;;;;;;21.06;100.00;94667.38;5054931;28;20025;-61
2021/08/08 10:39:14;;;;;;;2.45;1.10;;;;;;;21.11;100.00;94729.78;5054514;28;20017;-61
2021/08/08 10:41:53;;;;;;;3.20;1.10;;;;;;;20.99;100.00;94748.81;5054783;28;20549;-59
2021/08/08 10:44:20;;;;;;;3.70;1.23;;;;;;;20.75;100.00;94738.69;5054725;28;20033;-61
2021/08/08 10:46:52;;;;;;;2.03;0.98;;;;;;;20.12;100.00;94727.13;5068275;28;20025;-60
2021/08/08 10:49:35;;;;;;;1.25;0.80;;;;;;;19.57;100.00;94666.50;5056806;28;20307;-59
2021/08/08 10:52:08;;;;;;;2.70;1.40;;;;;;;19.41;100.00;94644.53;5074441;28;20028;-59
2021/08/08 10:54:44;;;;;;;1.98;0.98;;;;;;;19.32;100.00;94624.00;5061511;28;20033;-59
2021/08/08 10:57:11;;;;;;;2.38;0.90;;;;;;;19.18;100.00;94626.19;5036186;28;20515;-60
2021/08/08 10:59:51;;;;;;;6.38;1.33;;;;;;;19.17;100.00;94583.88;5054459;28;20086;-61
2021/08/08 11:02:28;;;;;;;2.88;1.50;;;;;;;19.07;100.00;94587.78;5054392;28;20028;-62
2021/08/08 11:04:56;;;;;;;3.30;1.13;;;;;;;19.07;100.00;94561.44;5036727;28;20039;-60
2021/08/08 11:07:27;;;;;;;3.22;1.50;;;;;;;19.12;100.00;94571.31;5030722;28;20025;-59
2021/08/08 11:09:53;;;;;;;1.13;0.80;;;;;;;19.17;100.00;94617.25;5074231;28;20411;-61
2021/08/08 11:12:54;;;;;;;4.63;1.20;;;;;;;19.30;100.00;94594.47;5074149;28;20033;-62
2021/08/08 11:15:31;;;;;;;3.63;1.10;;;;;;;19.27;100.00;94592.41;4956186;28;20058;-61
2021/08/08 11:17:58;;;;;;;2.45;1.05;;;;;;;19.08;100.00;94625.44;5062771;28;20051;-61
2021/08/08 11:20:31;;;;;;;3.45;1.30;;;;;;;19.06;100.00;94599.75;5093188;28;20048;-62
2021/08/08 11:22:57;;;;;;;2.10;1.13;;;;;;;18.94;100.00;94567.13;5087440;28;20087;-61
2021/08/08 11:25:40;;;;;;;2.50;1.10;;;;;;;18.82;100.00;94543.41;5060576;28;20033;-59
2021/08/08 11:28:06;;;;;;;3.25;1.08;;;;;;;18.68;100.00;94521.19;5054285;28;20032;-59
2021/08/08 11:30:45;;;;;;;2.75;1.00;;;;;;;18.46;100.00;94530.38;5053908;28;20402;-62
2021/08/08 11:33:13;;;;;;;3.35;1.15;;;;;;;18.12;100.00;94515.84;5094083;28;20028;-61
2021/08/08 11:35:42;;;;;;;2.00;0.98;;;;;;;17.95;100.00;94505.09;5075809;28;20024;-58
2021/08/08 11:38:19;;;;;;;3.38;1.52;;;;;;;17.65;100.00;94509.63;5093649;28;20084;-60